Aviation Digital Data Service (ADDS)

Output produced by METARs form (1256 UTC 15 November 2018)
found at http://www.aviationweather.gov/metar/data/
 
KMAF 151120Z 1512/1612 23007KT P6SM SCT250
       
KMBG 151128Z 1512/1612 VRB03KT P6SM SCT250 WS020/30040KT 
     FM151500 30015G22KT P6SM SCT250 
     FM151800 31021G31KT P6SM BKN130 
     FM160000 32010KT P6SM SCT130
       
KMBS 151120Z 1512/1612 10008KT P6SM OVC100 
     FM151900 11008KT 3SM -SN BR BKN020 OVC040 
     FM152100 11008KT 1 1/2SM -SN BR BKN008 OVC016 
     FM160200 14006KT 3SM -SN OVC010 
     FM160800 24006KT P6SM OVC016
       
KMCB 151130Z 1512/1612 33003KT P6SM SCT014 
     FM151600 33007KT P6SM SKC 
     FM160000 00000KT P6SM SKC
       
KMCC 151122Z 1512/1612 VRB02KT 2SM HZ FU OVC015 
     FM151800 VRB04KT 3SM HZ FU SCT250
       
KMCE 151140Z 1512/1612 VRB03KT 4SM HZ FU FEW200
       
TAF AMD KMCF 151130Z 1511/1615 32006KT 9999 SCT060 BKN085 QNH2998INS 
     TEMPO 1511/1515 BKN009 OVC012 
     BECMG 1514/1515 31006KT 9999 BKN025 QNH3002INS 
     BECMG 1523/1524 34009KT 9999 SCT020 QNH3006INS TX20/1517Z TN09/1512Z
       
KMCI 151120Z 1512/1612 19009KT P6SM SKC 
     FM160000 23006KT P6SM FEW250 
     FM160700 31007KT P6SM SCT200
       
KMCK 151123Z 1512/1612 26011KT P6SM SKC 
     FM151600 32010KT P6SM SKC 
     FM160400 29006KT P6SM SKC 
     FM160900 26005KT P6SM SKC
       
KMCN 151127Z 1512/1612 01005KT P6SM -RA OVC010 
     FM151500 30004KT 4SM BR OVC012 
     FM151900 27008G18KT P6SM BKN018 
     FM152300 28010G18KT P6SM SCT060 
     FM160400 27009KT P6SM SCT200 
     FM161000 28006KT P6SM SCT250
       
KMCO 151147Z 1512/1618 30015KT P6SM SCT008 BKN015 
     TEMPO 1512/1513 BKN008 
     FM151300 29008KT P6SM BKN015 OVC040 
     FM151700 30011KT P6SM SCT025 BKN040 
     FM160000 31009KT P6SM SCT025 SCT150 
     FM161400 34009KT P6SM SKC
       
KMCW 151131Z 1512/1612 18009KT P6SM SKC 
     FM151500 21013G19KT P6SM SKC 
     FM160000 24009KT P6SM SCT070 
     FM160400 30014G20KT P6SM SCT025
       
KMDT 151120Z 1512/1612 06004KT P6SM OVC150 
     FM151500 10008KT 1SM -SN OVC008 
     FM152100 05008KT 4SM -FZRAPL BR OVC007 
     FM160100 06006KT 4SM -RA BR OVC007 
     FM161000 31010G15KT 4SM -RA OVC015
       
KMDW 151130Z 1512/1618 03003KT P6SM FEW025 OVC100 
     FM151300 09004KT 3SM -SN SCT010 OVC020 
     TEMPO 1513/1515 2SM -SN 
     FM151700 12004KT P6SM VCSH SCT009 OVC015 
     FM152100 21008KT P6SM BKN020 
     FM160100 22012KT P6SM SCT025 
     FM161000 27012G18KT P6SM BKN015
       
KMEI 151150Z 1512/1612 31008KT P6SM OVC015 
     FM151500 30009KT P6SM SKC
       
KMEM 151135Z 1512/1618 28008KT P6SM OVC014 
     FM151500 27009KT P6SM BKN020 
     FM151700 27008KT P6SM SCT025 
     FM160000 20004KT P6SM SKC
       
KMER 151140Z 1512/1612 VRB03KT 4SM HZ FU FEW200
       
KMFE 151120Z 1512/1612 VRB04KT P6SM SKC
       
KMFR 151134Z 1512/1612 VRB02KT P6SM FEW050 SCT200
       
TAF AMD KMGE 151014Z 1510/1612 09009KT 6000 -RA OVC018 QNH3012INS 
     BECMG 1511/1512 04009KT 9000 -RA OVC005 QNH3004INS 
     BECMG 1515/1516 28010G15KT 9999 NSW OVC007 QNH3003INS 
     BECMG 1518/1519 28010G15KT 9999 OVC015 QNH3006INS 
     BECMG 1521/1522 28010G15KT 9999 BKN020 QNH3010INS 
     BECMG 1523/1524 29012KT 9999 BKN020 QNH3014INS TX06/1520Z TN04/1512Z
       
KMGM 151138Z 1512/1612 29007KT P6SM OVC006 
     FM151400 30010KT P6SM OVC010 
     FM151800 30012KT P6SM SCT020 
     FM160000 30004KT P6SM SKC
       
KMGW 151137Z 1512/1612 13008G15KT P6SM -RA OVC050 
     TEMPO 1512/1514 -FZRA 
     FM151400 11009KT 3SM -RA BR OVC035 
     FM152000 12009KT 2SM -RA BR OVC015 
     FM160000 16005KT 2SM -RASN BR OVC010 
     FM160400 24005KT 1SM -SN BR OVC008 
     FM161100 24010KT 4SM -SHSN OVC015
       
KMHK 151121Z 1512/1612 22007KT P6SM SKC 
     FM152100 26007KT P6SM SKC
       
KMHR 151122Z 1512/1612 VRB03KT 2SM HZ FU BKN020 
     FM151900 VRB04KT 3SM HZ FU SCT250
       
KMHT 151131Z 1512/1612 VRB03KT P6SM SCT250 
     FM151800 17005KT P6SM BKN080 OVC150 
     FM160100 09006KT 6SM -SN BKN025 
     FM160300 07006KT 4SM -SN BR OVC007 
     FM160500 05012KT 2SM -SN BR OVC003
       
KMIA 151138Z 1512/1618 VRB03KT P6SM SCT018 SCT035 
     TEMPO 1512/1513 -SHRA SCT015 BKN025 
     FM151400 20006KT P6SM VCSH SCT025 SCT050 
     FM152000 31008KT P6SM VCSH SCT035 BKN060 
     FM160100 32006KT P6SM SCT025 BKN150
       
TAF AMD KMIB 151120Z 1511/1615 30012KT 9000 -SHRA OVC030 QNH2975INS 
     BECMG 1514/1515 33015G25KT 9999 NSW OVC010 620309 QNH2990INS 
     BECMG 1523/1524 VRB06KT 9999 OVC010 620109 QNH2990INS 
     BECMG 1605/1606 VRB06KT 6000 -SN OVC007 620079 QNH2986INS WND 11009KT AFT
1612 
     TEMPO 1606/1612 OVC005 
     BECMG 1614/1615 06015KT 4800 -SN OVC007 620079 QNH2989INS TX04/1520Z
TNM02/1609Z
       
KMIV 151126Z 1512/1612 06010KT P6SM OVC035 
     TEMPO 1514/1515 -RAPL OVC025 
     FM151500 07012KT 3SM -RA BR OVC015 
     FM151800 07014G24KT 2SM RA BR OVC006 
     FM160000 06016G28KT 4SM -RA BR OVC006 
     FM160700 36010G18KT 6SM -SHRA BR OVC012 
     FM160900 29012G20KT P6SM -SHRA BKN012 OVC025
       
KMKE 151120Z 1512/1618 VRB04KT P6SM FEW020 
     FM151800 16006KT P6SM SCT200 
     FM160900 25012G18KT P6SM BKN015 
     FM161200 29012G21KT P6SM BKN015
       
KMKL 151135Z 1512/1612 27007KT 6SM BR OVC012 
     FM151900 26009KT P6SM BKN020 
     FM152200 20006KT P6SM SCT025 
     FM160100 20003KT P6SM SKC
       
KMKT 151120Z 1512/1612 18014G21KT P6SM SKC 
     FM151800 23012G18KT P6SM FEW150 
     FM152300 28012G18KT P6SM OVC040 
     FM160100 31015G25KT P6SM OVC025 
     PROB30 1602/1604 3SM -SHSN OVC018 
     FM160900 31012KT P6SM BKN025 OVC050
       
KMLB 151147Z 1512/1612 21007KT P6SM VCSH SCT005 BKN070 
     TEMPO 1512/1514 28014G20KT 4SM SHRA BKN004 
     FM151400 29008KT P6SM VCSH SCT015 BKN025 OVC040 
     FM151800 31011KT P6SM SCT030 BKN050 
     FM160000 31008KT P6SM SCT050 SCT150
       
KMLI 151120Z 1512/1612 VRB04KT P6SM SKC 
     FM151900 20007KT P6SM SKC 
     FM160200 24011KT P6SM SKC 
     FM160600 26011KT P6SM BKN050
       
KMLS 151137Z 1512/1612 30022G29KT P6SM SCT200 
     FM151900 29014G23KT P6SM SCT150 
     FM160100 VRB06KT P6SM BKN100 
     FM160700 16007KT P6SM BKN080
       
KMLU 151120Z 1512/1612 VRB03KT 3SM BR SKC 
     TEMPO 1512/1515 1/4SM FG VV002 
     FM151500 25005KT P6SM SKC 
     FM152100 24006KT P6SM SCT250 
     FM160000 00000KT P6SM BKN250
       
KMMH 151129Z 1512/1612 VRB03KT P6SM FEW180 
     FM152000 12009KT P6SM FEW160 SCT250 
     FM160200 VRB03KT P6SM FEW180 SCT250
       
TAF AMD KMMT 151040Z 1510/1614 03009KT 8000 RA BR BKN005 WS020/09050KT 540204
QNH2996INS 
     TEMPO 1510/1515 05015G25KT 4800 +RA 
     BECMG 1514/1515 30010G15KT 8000 RA BKN010 OVC020 510103 QNH2995INS 
     BECMG 1517/1518 28015G20KT 9999 NSW BKN015 QNH2995INS 
     BECMG 1608/1609 28006KT 9999 SKC QNH2991INS TX10/1521Z TN01/1608Z
       
KMOB 151128Z 1512/1612 31008G18KT P6SM OVC014 
     FM151500 33013KT P6SM SKC 
     FM160300 31003KT P6SM SKC
       
KMOD 151122Z 1512/1612 VRB04KT 2SM FU HZ SCT250 
     FM151800 VRB04KT 3SM HZ FU SCT250
       
KMOT 151133Z 1512/1612 28012KT P6SM VCSH SCT035 OVC050 
     TEMPO 1514/1517 4SM -SNRA BR OVC015 
     FM152200 30013KT P6SM VCSH BKN015 
     FM160300 27005KT P6SM OVC008
       
KMPV 151132Z 1512/1612 00000KT P6SM SCT250 
     FM160100 15007KT P6SM VCSH OVC090 
     FM160500 13006KT 1SM -SN BR OVC025
       
KMQY 151120Z 1512/1612 25004KT P6SM FEW008 OVC016 
     TEMPO 1512/1516 4SM -SN BKN008 OVC016 
     FM152300 29011KT P6SM OVC035 
     FM160300 26005KT P6SM SCT100
       
KMRY 151121Z 1512/1612 09004KT P6SM FEW250 
     FM152000 31006KT 6SM FU HZ FEW250 
     FM160200 VRB04KT 5SM FU HZ FEW250 
     FM160500 09004KT 6SM FU HZ FEW250
       
KMRB 151120Z 1512/1612 09005KT P6SM -FZRASNPL SCT050 OVC080 
     FM151500 06007KT 1 1/2SM -FZRASNPL BKN010 OVC025 
     FM152100 04009KT 2SM -FZRAPL BKN008 OVC025 
     FM160300 36008KT 2SM -FZRAPLSN BKN003 OVC025 
     FM160600 31009KT 2SM -RASNPL BKN003 OVC025 
     FM160900 30010G17KT P6SM SCT025 BKN035
       
KMSL 151143Z 1512/1612 26010KT P6SM OVC015 
     TEMPO 1512/1514 OVC007 
     FM151400 28010KT P6SM BKN015 OVC025 
     FM152100 32006KT P6SM SCT025 BKN035 
     FM160200 VRB03KT P6SM FEW250 
     TEMPO 1610/1612 5SM BR
       
KMSO 151129Z 1512/1612 VRB02KT 6SM BR VCFG BKN035 
     FM151600 29004KT P6SM BKN050 
     FM161100 VRB03KT P6SM VCSH OVC050
       
KMSN 151120Z 1512/1612 VRB03KT P6SM SKC 
     FM151500 17005KT P6SM SKC 
     FM160500 23009KT P6SM BKN110 
     FM160900 28011G17KT P6SM OVC015
       
KMSP 151120Z 1512/1618 17012KT P6SM SCT250 
     FM151600 19012KT P6SM FEW070 SCT120 
     FM152200 24009KT P6SM BKN035 OVC070 
     FM160200 30013G22KT 4SM -SHSN OVC015 
     TEMPO 1602/1605 2SM -SHSN OVC012 
     FM160500 31015G25KT P6SM OVC018 
     FM160800 30012KT P6SM BKN020 OVC050
       
KMSS 151132Z 1512/1612 00000KT P6SM SCT200 
     FM160300 07005KT P6SM VCSH OVC040 
     FM160700 07005KT 1SM -SN BR OVC015
       
KMSY 151130Z 1512/1618 34008KT P6SM FEW018 
     FM151600 33008KT P6SM SKC 
     FM160000 31004KT P6SM SKC
       
TAF KMTC 150900Z 1509/1615 09006KT 9999 SCT020 QNH3024INS 
     BECMG 1515/1516 11009KT 6000 -RASN BKN020 620209 QNH2974INS 
     BECMG 1516/1517 13009KT 6000 -SN OVC007 620079 QNH2974INS WND VRB06KT AFT
1521 
     BECMG 1611/1612 13009KT 6000 -SN OVC010 620109 QNH2974INS TX02/1600Z
TNM01/1509Z LAST NO AMDS AFT 1509 NEXT 1511
       
KMTH 151128Z 1512/1612 VRB05KT P6SM VCSH SCT015 BKN050 
     TEMPO 1513/1515 24010G20KT 3SM SHRA BKN020 
     FM151500 33010KT P6SM VCSH SCT020 BKN040 
     FM152200 36015G22KT P6SM SCT020 BKN035
       
KMTJ 151124Z 1512/1612 16005KT P6SM SKC 
     FM151800 35004KT P6SM SKC 
     FM160200 15005KT P6SM SKC
       
KMTN 151255Z 1513/1612 06008KT 2SM -SNPL OVC029 
     FM151500 06012G22KT 2SM -FZRAPL BKN015 OVC025 
     FM151800 05014G27KT 1 1/2SM -RA BKN008 OVC025 WS020/07040KT 
     FM160100 05014G27KT 2SM -RA BKN008 OVC025 
     FM160700 33009KT 3SM -RA BKN003 OVC025
       
KMTW 151136Z 1512/1612 18004KT P6SM SCT025 
     TEMPO 1512/1515 BKN025 
     FM151500 20007KT P6SM SCT025 
     FM151700 18010G18KT P6SM SKC 
     FM152200 21009KT P6SM SCT100 
     FM160900 25010KT 3SM -SHSN BR OVC020
       
TAF KMUO 151003Z 1510/1616 12009KT 9999 SCT045 BKN200 QNH3026INS 
     BECMG 1521/1522 VRB06KT 9999 FEW045 SCT200 QNH3016INS 
     BECMG 1614/1615 12006KT 9999 BKN060 QNH3015INS TX10/1521Z TNM06/1515Z
       
KMWH 151130Z 1512/1612 36003KT 6SM BR SCT008 
     FM152100 20004KT 6SM BR BKN007
       
TAF KMXF 151200Z 1512/1618 31010KT 9999 OVC010 QNH3017INS 
     TEMPO 1512/1514 OVC007 
     BECMG 1515/1516 30012G18KT 9999 SCT020 QNH3014INS 
     BECMG 1523/1524 31006KT 9999 SKC QNH3017INS TX10/1520Z TNM01/1611Z
       
KMYL 151120Z 1512/1612 00000KT P6SM SCT035 
     FM151600 VRB04KT P6SM SCT150 
     FM161100 VRB03KT P6SM VCSH SCT050 BKN080
       
KMYR 151122Z 1512/1612 05013G20KT 6SM RA OVC007 
     FM151700 32007G17KT P6SM OVC011 
     FM160600 28013KT P6SM SCT020